sensor_id;sensor_type;location;lat;lon;timestamp;P1;durP1;ratioP1;P2;durP2;ratioP2
47603;SDS011;33326;51.116;6.900;2022-09-30T00:01:58;14.93;;;8.50;;
47603;SDS011;33326;51.116;6.900;2022-09-30T00:07:01;12.70;;;7.88;;
47603;SDS011;33326;51.116;6.900;2022-09-30T00:12:03;12.43;;;8.02;;
47603;SDS011;33326;51.116;6.900;2022-09-30T00:17:06;11.80;;;7.68;;
47603;SDS011;33326;51.116;6.900;2022-09-30T00:22:10;10.25;;;7.57;;
47603;SDS011;33326;51.116;6.900;2022-09-30T00:27:11;11.43;;;8.07;;
47603;SDS011;33326;51.116;6.900;2022-09-30T00:32:17;11.02;;;7.65;;
47603;SDS011;33326;51.116;6.900;2022-09-30T00:37:20;11.98;;;8.23;;
47603;SDS011;33326;51.116;6.900;2022-09-30T00:42:22;12.98;;;7.90;;
47603;SDS011;33326;51.116;6.900;2022-09-30T00:47:29;16.52;;;8.73;;
47603;SDS011;33326;51.116;6.900;2022-09-30T00:52:42;12.40;;;7.30;;
47603;SDS011;33326;51.116;6.900;2022-09-30T00:57:46;10.73;;;7.57;;
47603;SDS011;33326;51.116;6.900;2022-09-30T01:02:48;11.70;;;7.43;;
47603;SDS011;33326;51.116;6.900;2022-09-30T01:07:52;9.88;;;7.15;;
47603;SDS011;33326;51.116;6.900;2022-09-30T01:12:56;9.35;;;6.82;;
47603;SDS011;33326;51.116;6.900;2022-09-30T01:18:01;10.98;;;7.15;;
47603;SDS011;33326;51.116;6.900;2022-09-30T01:23:13;10.13;;;7.22;;
47603;SDS011;33326;51.116;6.900;2022-09-30T01:28:36;10.63;;;7.32;;
47603;SDS011;33326;51.116;6.900;2022-09-30T01:34:18;11.48;;;7.00;;
47603;SDS011;33326;51.116;6.900;2022-09-30T01:39:32;10.77;;;6.72;;
47603;SDS011;33326;51.116;6.900;2022-09-30T01:44:45;8.57;;;6.50;;
47603;SDS011;33326;51.116;6.900;2022-09-30T01:49:55;8.82;;;5.93;;
47603;SDS011;33326;51.116;6.900;2022-09-30T01:55:02;13.43;;;6.75;;
47603;SDS011;33326;51.116;6.900;2022-09-30T02:00:09;8.15;;;6.15;;
47603;SDS011;33326;51.116;6.900;2022-09-30T02:05:14;10.07;;;6.25;;
47603;SDS011;33326;51.116;6.900;2022-09-30T02:10:21;10.23;;;6.35;;
47603;SDS011;33326;51.116;6.900;2022-09-30T02:15:27;9.10;;;6.25;;
47603;SDS011;33326;51.116;6.900;2022-09-30T02:20:38;8.40;;;6.30;;
47603;SDS011;33326;51.116;6.900;2022-09-30T02:25:44;9.93;;;6.60;;
47603;SDS011;33326;51.116;6.900;2022-09-30T02:30:50;8.90;;;6.43;;
47603;SDS011;33326;51.116;6.900;2022-09-30T02:35:57;9.90;;;6.35;;
47603;SDS011;33326;51.116;6.900;2022-09-30T02:41:05;8.85;;;6.50;;
47603;SDS011;33326;51.116;6.900;2022-09-30T02:46:11;9.60;;;6.15;;
47603;SDS011;33326;51.116;6.900;2022-09-30T02:51:21;9.85;;;6.55;;
47603;SDS011;33326;51.116;6.900;2022-09-30T02:56:32;9.47;;;6.60;;
47603;SDS011;33326;51.116;6.900;2022-09-30T03:01:43;9.32;;;6.65;;
47603;SDS011;33326;51.116;6.900;2022-09-30T03:06:46;10.57;;;7.10;;
47603;SDS011;33326;51.116;6.900;2022-09-30T03:11:48;9.95;;;6.32;;
47603;SDS011;33326;51.116;6.900;2022-09-30T03:16:57;10.38;;;6.05;;
47603;SDS011;33326;51.116;6.900;2022-09-30T03:22:34;10.25;;;6.22;;
47603;SDS011;33326;51.116;6.900;2022-09-30T03:27:49;10.43;;;6.38;;
47603;SDS011;33326;51.116;6.900;2022-09-30T03:33:04;10.00;;;6.32;;
47603;SDS011;33326;51.116;6.900;2022-09-30T03:38:12;9.80;;;6.82;;
47603;SDS011;33326;51.116;6.900;2022-09-30T03:43:24;9.15;;;6.50;;
47603;SDS011;33326;51.116;6.900;2022-09-30T03:48:31;8.18;;;6.20;;
47603;SDS011;33326;51.116;6.900;2022-09-30T03:53:39;8.13;;;6.20;;
47603;SDS011;33326;51.116;6.900;2022-09-30T03:58:42;10.52;;;6.72;;
47603;SDS011;33326;51.116;6.900;2022-09-30T04:03:45;9.82;;;6.20;;
47603;SDS011;33326;51.116;6.900;2022-09-30T04:08:48;12.52;;;6.57;;
47603;SDS011;33326;51.116;6.900;2022-09-30T04:13:53;10.05;;;6.13;;
47603;SDS011;33326;51.116;6.900;2022-09-30T04:18:55;11.63;;;6.03;;
47603;SDS011;33326;51.116;6.900;2022-09-30T04:23:58;9.43;;;5.75;;
47603;SDS011;33326;51.116;6.900;2022-09-30T04:29:00;9.77;;;6.20;;
47603;SDS011;33326;51.116;6.900;2022-09-30T04:34:03;9.68;;;6.22;;
47603;SDS011;33326;51.116;6.900;2022-09-30T04:39:06;9.32;;;6.20;;
47603;SDS011;33326;51.116;6.900;2022-09-30T04:44:08;9.05;;;6.20;;
47603;SDS011;33326;51.116;6.900;2022-09-30T04:49:11;8.90;;;6.10;;
47603;SDS011;33326;51.116;6.900;2022-09-30T04:54:14;11.13;;;6.55;;
47603;SDS011;33326;51.116;6.900;2022-09-30T04:59:16;14.90;;;6.88;;
47603;SDS011;33326;51.116;6.900;2022-09-30T05:04:17;12.70;;;6.47;;
47603;SDS011;33326;51.116;6.900;2022-09-30T05:09:21;9.38;;;6.70;;
47603;SDS011;33326;51.116;6.900;2022-09-30T05:14:22;11.10;;;6.40;;
47603;SDS011;33326;51.116;6.900;2022-09-30T05:19:24;9.77;;;6.60;;
47603;SDS011;33326;51.116;6.900;2022-09-30T05:24:28;12.30;;;6.63;;
47603;SDS011;33326;51.116;6.900;2022-09-30T05:29:30;11.30;;;6.82;;
47603;SDS011;33326;51.116;6.900;2022-09-30T05:34:32;11.38;;;6.43;;
47603;SDS011;33326;51.116;6.900;2022-09-30T05:39:35;13.80;;;7.25;;
47603;SDS011;33326;51.116;6.900;2022-09-30T05:44:37;8.88;;;6.22;;
47603;SDS011;33326;51.116;6.900;2022-09-30T05:49:39;12.50;;;6.32;;
47603;SDS011;33326;51.116;6.900;2022-09-30T05:54:42;9.15;;;6.40;;
47603;SDS011;33326;51.116;6.900;2022-09-30T05:59:44;9.90;;;6.68;;
47603;SDS011;33326;51.116;6.900;2022-09-30T06:04:46;11.55;;;6.97;;
47603;SDS011;33326;51.116;6.900;2022-09-30T06:09:50;12.57;;;6.55;;
47603;SDS011;33326;51.116;6.900;2022-09-30T06:14:52;10.10;;;7.10;;
47603;SDS011;33326;51.116;6.900;2022-09-30T06:19:55;11.00;;;7.00;;
47603;SDS011;33326;51.116;6.900;2022-09-30T06:24:58;10.70;;;7.57;;
47603;SDS011;33326;51.116;6.900;2022-09-30T06:30:00;11.07;;;7.63;;
47603;SDS011;33326;51.116;6.900;2022-09-30T06:35:02;12.45;;;8.05;;
47603;SDS011;33326;51.116;6.900;2022-09-30T06:40:06;12.05;;;8.20;;
47603;SDS011;33326;51.116;6.900;2022-09-30T06:45:09;13.23;;;8.25;;
47603;SDS011;33326;51.116;6.900;2022-09-30T06:50:11;13.40;;;7.80;;
47603;SDS011;33326;51.116;6.900;2022-09-30T06:55:14;12.85;;;9.07;;
47603;SDS011;33326;51.116;6.900;2022-09-30T07:00:16;12.75;;;9.07;;
47603;SDS011;33326;51.116;6.900;2022-09-30T07:05:18;13.70;;;9.18;;
47603;SDS011;33326;51.116;6.900;2022-09-30T07:10:21;17.88;;;9.05;;
47603;SDS011;33326;51.116;6.900;2022-09-30T07:15:23;10.55;;;8.20;;
47603;SDS011;33326;51.116;6.900;2022-09-30T07:20:25;11.68;;;7.57;;
47603;SDS011;33326;51.116;6.900;2022-09-30T07:25:29;12.95;;;8.15;;
47603;SDS011;33326;51.116;6.900;2022-09-30T07:30:30;10.93;;;7.22;;
47603;SDS011;33326;51.116;6.900;2022-09-30T07:35:32;13.52;;;7.78;;
47603;SDS011;33326;51.116;6.900;2022-09-30T07:40:36;15.82;;;7.30;;
47603;SDS011;33326;51.116;6.900;2022-09-30T07:45:37;10.57;;;7.97;;
47603;SDS011;33326;51.116;6.900;2022-09-30T07:50:40;13.80;;;7.75;;
47603;SDS011;33326;51.116;6.900;2022-09-30T07:55:45;14.15;;;8.10;;
47603;SDS011;33326;51.116;6.900;2022-09-30T08:00:47;11.68;;;8.68;;
47603;SDS011;33326;51.116;6.900;2022-09-30T08:05:52;13.43;;;7.97;;
47603;SDS011;33326;51.116;6.900;2022-09-30T08:10:58;12.40;;;7.95;;
47603;SDS011;33326;51.116;6.900;2022-09-30T08:16:00;12.80;;;7.93;;
47603;SDS011;33326;51.116;6.900;2022-09-30T08:21:03;11.75;;;7.97;;
47603;SDS011;33326;51.116;6.900;2022-09-30T08:26:08;13.73;;;8.50;;
47603;SDS011;33326;51.116;6.900;2022-09-30T08:31:12;11.93;;;8.45;;
47603;SDS011;33326;51.116;6.900;2022-09-30T08:36:17;15.73;;;8.85;;
47603;SDS011;33326;51.116;6.900;2022-09-30T08:41:25;12.27;;;8.27;;
47603;SDS011;33326;51.116;6.900;2022-09-30T08:46:43;12.18;;;7.90;;
47603;SDS011;33326;51.116;6.900;2022-09-30T08:51:48;12.13;;;7.72;;
47603;SDS011;33326;51.116;6.900;2022-09-30T08:56:53;15.00;;;8.27;;
47603;SDS011;33326;51.116;6.900;2022-09-30T09:01:58;14.65;;;8.18;;
47603;SDS011;33326;51.116;6.900;2022-09-30T09:07:04;13.20;;;7.93;;
47603;SDS011;33326;51.116;6.900;2022-09-30T09:12:14;14.88;;;8.05;;
47603;SDS011;33326;51.116;6.900;2022-09-30T09:17:34;14.43;;;7.68;;
47603;SDS011;33326;51.116;6.900;2022-09-30T09:22:48;7.82;;;5.65;;
47603;SDS011;33326;51.116;6.900;2022-09-30T09:27:53;10.77;;;7.18;;
47603;SDS011;33326;51.116;6.900;2022-09-30T09:32:59;12.88;;;7.85;;
47603;SDS011;33326;51.116;6.900;2022-09-30T09:38:09;13.38;;;7.47;;
47603;SDS011;33326;51.116;6.900;2022-09-30T09:43:31;15.63;;;7.18;;
47603;SDS011;33326;51.116;6.900;2022-09-30T09:48:43;13.18;;;7.68;;
47603;SDS011;33326;51.116;6.900;2022-09-30T09:53:46;13.05;;;6.80;;
47603;SDS011;33326;51.116;6.900;2022-09-30T09:59:11;14.43;;;7.10;;
47603;SDS011;33326;51.116;6.900;2022-09-30T10:04:15;14.75;;;6.78;;
47603;SDS011;33326;51.116;6.900;2022-09-30T10:09:30;10.98;;;6.47;;
47603;SDS011;33326;51.116;6.900;2022-09-30T10:14:36;9.60;;;6.43;;
47603;SDS011;33326;51.116;6.900;2022-09-30T10:19:47;11.98;;;6.18;;
47603;SDS011;33326;51.116;6.900;2022-09-30T10:24:51;14.18;;;6.65;;
47603;SDS011;33326;51.116;6.900;2022-09-30T10:30:13;11.10;;;6.40;;
47603;SDS011;33326;51.116;6.900;2022-09-30T10:35:32;9.93;;;5.70;;
47603;SDS011;33326;51.116;6.900;2022-09-30T10:40:34;10.30;;;5.90;;
47603;SDS011;33326;51.116;6.900;2022-09-30T10:45:37;9.82;;;6.22;;
47603;SDS011;33326;51.116;6.900;2022-09-30T10:50:40;12.07;;;6.20;;
47603;SDS011;33326;51.116;6.900;2022-09-30T10:55:51;11.63;;;6.07;;
47603;SDS011;33326;51.116;6.900;2022-09-30T11:00:59;15.93;;;6.32;;
47603;SDS011;33326;51.116;6.900;2022-09-30T11:06:09;11.05;;;6.35;;
47603;SDS011;33326;51.116;6.900;2022-09-30T11:11:14;11.10;;;6.78;;
47603;SDS011;33326;51.116;6.900;2022-09-30T11:16:23;11.77;;;6.13;;
47603;SDS011;33326;51.116;6.900;2022-09-30T11:21:33;13.50;;;6.25;;
47603;SDS011;33326;51.116;6.900;2022-09-30T11:26:42;9.60;;;5.27;;
47603;SDS011;33326;51.116;6.900;2022-09-30T11:31:51;11.65;;;5.72;;
47603;SDS011;33326;51.116;6.900;2022-09-30T11:37:00;10.93;;;5.70;;
47603;SDS011;33326;51.116;6.900;2022-09-30T11:42:11;8.60;;;5.15;;
47603;SDS011;33326;51.116;6.900;2022-09-30T11:47:25;8.23;;;5.10;;
47603;SDS011;33326;51.116;6.900;2022-09-30T11:52:46;12.00;;;5.32;;
47603;SDS011;33326;51.116;6.900;2022-09-30T11:57:57;10.82;;;5.47;;
47603;SDS011;33326;51.116;6.900;2022-09-30T12:03:05;10.02;;;5.70;;
47603;SDS011;33326;51.116;6.900;2022-09-30T12:08:13;9.45;;;5.03;;
47603;SDS011;33326;51.116;6.900;2022-09-30T12:13:19;8.82;;;4.35;;
47603;SDS011;33326;51.116;6.900;2022-09-30T12:18:28;9.23;;;4.63;;
47603;SDS011;33326;51.116;6.900;2022-09-30T12:23:34;9.23;;;3.20;;
47603;SDS011;33326;51.116;6.900;2022-09-30T12:28:43;6.50;;;4.30;;
47603;SDS011;33326;51.116;6.900;2022-09-30T12:34:14;8.52;;;3.47;;
47603;SDS011;33326;51.116;6.900;2022-09-30T12:50:12;4.15;;;2.58;;
47603;SDS011;33326;51.116;6.900;2022-09-30T12:55:19;8.45;;;2.75;;
47603;SDS011;33326;51.116;6.900;2022-09-30T13:00:28;4.13;;;2.67;;
47603;SDS011;33326;51.116;6.900;2022-09-30T13:11:05;5.25;;;2.05;;
47603;SDS011;33326;51.116;6.900;2022-09-30T13:27:33;2.83;;;2.05;;
47603;SDS011;33326;51.116;6.900;2022-09-30T13:32:36;4.30;;;1.73;;
47603;SDS011;33326;51.116;6.900;2022-09-30T13:37:38;2.65;;;2.00;;
47603;SDS011;33326;51.116;6.900;2022-09-30T13:42:47;4.57;;;2.30;;
47603;SDS011;33326;51.116;6.900;2022-09-30T13:47:56;4.53;;;1.77;;
47603;SDS011;33326;51.116;6.900;2022-09-30T13:53:11;3.83;;;1.50;;
47603;SDS011;33326;51.116;6.900;2022-09-30T13:58:23;2.65;;;1.63;;
47603;SDS011;33326;51.116;6.900;2022-09-30T14:03:54;10.15;;;2.42;;
47603;SDS011;33326;51.116;6.900;2022-09-30T14:09:25;4.07;;;1.60;;
47603;SDS011;33326;51.116;6.900;2022-09-30T14:15:14;5.80;;;1.60;;
47603;SDS011;33326;51.116;6.900;2022-09-30T14:20:35;5.43;;;1.60;;
47603;SDS011;33326;51.116;6.900;2022-09-30T14:25:48;1.95;;;1.30;;
47603;SDS011;33326;51.116;6.900;2022-09-30T14:31:00;3.17;;;1.08;;
47603;SDS011;33326;51.116;6.900;2022-09-30T14:36:10;3.83;;;1.70;;
47603;SDS011;33326;51.116;6.900;2022-09-30T14:41:15;5.50;;;1.42;;
47603;SDS011;33326;51.116;6.900;2022-09-30T14:46:25;4.35;;;1.73;;
47603;SDS011;33326;51.116;6.900;2022-09-30T14:51:34;1.60;;;1.00;;
47603;SDS011;33326;51.116;6.900;2022-09-30T14:56:42;2.50;;;1.30;;
47603;SDS011;33326;51.116;6.900;2022-09-30T15:01:45;1.60;;;1.10;;
47603;SDS011;33326;51.116;6.900;2022-09-30T15:06:50;1.75;;;1.05;;
47603;SDS011;33326;51.116;6.900;2022-09-30T15:11:53;2.35;;;1.00;;
47603;SDS011;33326;51.116;6.900;2022-09-30T15:16:58;2.55;;;1.20;;
47603;SDS011;33326;51.116;6.900;2022-09-30T15:22:01;2.35;;;1.15;;
47603;SDS011;33326;51.116;6.900;2022-09-30T15:27:05;4.95;;;1.33;;
47603;SDS011;33326;51.116;6.900;2022-09-30T15:32:18;2.65;;;0.93;;
47603;SDS011;33326;51.116;6.900;2022-09-30T15:37:22;2.92;;;1.50;;
47603;SDS011;33326;51.116;6.900;2022-09-30T15:42:29;3.15;;;1.63;;
47603;SDS011;33326;51.116;6.900;2022-09-30T15:47:38;2.88;;;1.40;;
47603;SDS011;33326;51.116;6.900;2022-09-30T15:52:54;2.00;;;1.33;;
47603;SDS011;33326;51.116;6.900;2022-09-30T16:03:30;3.70;;;1.25;;
47603;SDS011;33326;51.116;6.900;2022-09-30T16:08:35;3.58;;;1.85;;
47603;SDS011;33326;51.116;6.900;2022-09-30T16:13:44;3.45;;;1.50;;
47603;SDS011;33326;51.116;6.900;2022-09-30T16:18:49;3.78;;;1.80;;
47603;SDS011;33326;51.116;6.900;2022-09-30T16:23:53;5.45;;;1.90;;
47603;SDS011;33326;51.116;6.900;2022-09-30T16:28:55;3.10;;;2.00;;
47603;SDS011;33326;51.116;6.900;2022-09-30T16:34:02;4.53;;;2.30;;
47603;SDS011;33326;51.116;6.900;2022-09-30T16:39:04;6.28;;;2.20;;
47603;SDS011;33326;51.116;6.900;2022-09-30T16:44:06;4.03;;;1.90;;
47603;SDS011;33326;51.116;6.900;2022-09-30T16:49:11;3.67;;;2.25;;
47603;SDS011;33326;51.116;6.900;2022-09-30T16:54:15;2.67;;;1.90;;
47603;SDS011;33326;51.116;6.900;2022-09-30T16:59:18;4.53;;;1.73;;
47603;SDS011;33326;51.116;6.900;2022-09-30T17:04:21;4.40;;;2.42;;
47603;SDS011;33326;51.116;6.900;2022-09-30T17:09:23;6.40;;;2.47;;
47603;SDS011;33326;51.116;6.900;2022-09-30T17:14:25;4.93;;;2.10;;
47603;SDS011;33326;51.116;6.900;2022-09-30T17:19:29;4.93;;;2.13;;
47603;SDS011;33326;51.116;6.900;2022-09-30T17:24:34;3.30;;;2.08;;
47603;SDS011;33326;51.116;6.900;2022-09-30T17:29:36;4.32;;;2.17;;
47603;SDS011;33326;51.116;6.900;2022-09-30T17:34:40;5.30;;;2.40;;
47603;SDS011;33326;51.116;6.900;2022-09-30T17:39:42;6.18;;;2.65;;
47603;SDS011;33326;51.116;6.900;2022-09-30T17:44:44;8.93;;;2.72;;
47603;SDS011;33326;51.116;6.900;2022-09-30T17:49:48;5.05;;;2.60;;
47603;SDS011;33326;51.116;6.900;2022-09-30T17:54:50;7.03;;;3.17;;
47603;SDS011;33326;51.116;6.900;2022-09-30T17:59:52;6.53;;;2.80;;
47603;SDS011;33326;51.116;6.900;2022-09-30T18:04:59;5.65;;;2.78;;
47603;SDS011;33326;51.116;6.900;2022-09-30T18:10:01;6.75;;;2.80;;
47603;SDS011;33326;51.116;6.900;2022-09-30T18:15:03;6.70;;;3.30;;
47603;SDS011;33326;51.116;6.900;2022-09-30T18:20:08;5.40;;;3.17;;
47603;SDS011;33326;51.116;6.900;2022-09-30T18:25:10;4.47;;;3.13;;
47603;SDS011;33326;51.116;6.900;2022-09-30T18:30:22;9.00;;;3.03;;
47603;SDS011;33326;51.116;6.900;2022-09-30T18:35:26;7.18;;;2.58;;
47603;SDS011;33326;51.116;6.900;2022-09-30T18:40:29;6.38;;;2.33;;
47603;SDS011;33326;51.116;6.900;2022-09-30T18:45:32;10.80;;;1.98;;
47603;SDS011;33326;51.116;6.900;2022-09-30T18:50:38;5.97;;;2.63;;
47603;SDS011;33326;51.116;6.900;2022-09-30T18:55:40;4.30;;;2.30;;
47603;SDS011;33326;51.116;6.900;2022-09-30T19:00:43;7.65;;;2.88;;
47603;SDS011;33326;51.116;6.900;2022-09-30T19:05:46;4.63;;;2.50;;
47603;SDS011;33326;51.116;6.900;2022-09-30T19:10:49;3.53;;;2.38;;
47603;SDS011;33326;51.116;6.900;2022-09-30T19:15:51;4.10;;;2.65;;
47603;SDS011;33326;51.116;6.900;2022-09-30T19:20:54;5.07;;;2.55;;
47603;SDS011;33326;51.116;6.900;2022-09-30T19:25:56;4.00;;;2.40;;
47603;SDS011;33326;51.116;6.900;2022-09-30T19:31:04;8.15;;;5.28;;
47603;SDS011;33326;51.116;6.900;2022-09-30T19:36:09;5.15;;;3.63;;
47603;SDS011;33326;51.116;6.900;2022-09-30T19:41:14;3.88;;;2.92;;
47603;SDS011;33326;51.116;6.900;2022-09-30T19:46:16;3.47;;;2.38;;
47603;SDS011;33326;51.116;6.900;2022-09-30T19:51:22;7.50;;;3.08;;
47603;SDS011;33326;51.116;6.900;2022-09-30T19:56:25;4.68;;;2.70;;
47603;SDS011;33326;51.116;6.900;2022-09-30T20:01:27;6.82;;;3.17;;
47603;SDS011;33326;51.116;6.900;2022-09-30T20:06:32;5.30;;;2.50;;
47603;SDS011;33326;51.116;6.900;2022-09-30T20:11:35;5.60;;;2.88;;
47603;SDS011;33326;51.116;6.900;2022-09-30T20:16:38;5.38;;;2.40;;
47603;SDS011;33326;51.116;6.900;2022-09-30T20:21:43;4.55;;;2.40;;
47603;SDS011;33326;51.116;6.900;2022-09-30T20:26:46;6.95;;;2.92;;
47603;SDS011;33326;51.116;6.900;2022-09-30T20:31:49;4.97;;;2.50;;
47603;SDS011;33326;51.116;6.900;2022-09-30T20:36:53;5.35;;;2.80;;
47603;SDS011;33326;51.116;6.900;2022-09-30T20:41:55;6.03;;;3.15;;
47603;SDS011;33326;51.116;6.900;2022-09-30T20:46:57;4.63;;;2.95;;
47603;SDS011;33326;51.116;6.900;2022-09-30T20:52:02;10.48;;;5.28;;
47603;SDS011;33326;51.116;6.900;2022-09-30T20:57:05;16.33;;;7.32;;
47603;SDS011;33326;51.116;6.900;2022-09-30T21:02:07;6.78;;;3.38;;
47603;SDS011;33326;51.116;6.900;2022-09-30T21:07:12;14.27;;;6.43;;
47603;SDS011;33326;51.116;6.900;2022-09-30T21:12:14;4.95;;;3.00;;
47603;SDS011;33326;51.116;6.900;2022-09-30T21:17:16;3.95;;;3.03;;
47603;SDS011;33326;51.116;6.900;2022-09-30T21:22:19;4.85;;;3.47;;
47603;SDS011;33326;51.116;6.900;2022-09-30T21:27:21;4.38;;;2.63;;
47603;SDS011;33326;51.116;6.900;2022-09-30T21:32:23;5.90;;;2.90;;
47603;SDS011;33326;51.116;6.900;2022-09-30T21:37:26;4.75;;;3.17;;
47603;SDS011;33326;51.116;6.900;2022-09-30T21:42:28;5.38;;;3.15;;
47603;SDS011;33326;51.116;6.900;2022-09-30T21:47:30;4.65;;;3.03;;
47603;SDS011;33326;51.116;6.900;2022-09-30T21:52:33;4.68;;;3.20;;
47603;SDS011;33326;51.116;6.900;2022-09-30T21:57:37;4.47;;;3.15;;
47603;SDS011;33326;51.116;6.900;2022-09-30T22:02:39;5.18;;;3.50;;
47603;SDS011;33326;51.116;6.900;2022-09-30T22:07:42;4.53;;;3.58;;
47603;SDS011;33326;51.116;6.900;2022-09-30T22:12:44;4.80;;;3.70;;
47603;SDS011;33326;51.116;6.900;2022-09-30T22:17:48;6.72;;;3.50;;
47603;SDS011;33326;51.116;6.900;2022-09-30T22:22:52;6.63;;;3.83;;
47603;SDS011;33326;51.116;6.900;2022-09-30T22:27:53;8.25;;;3.47;;
47603;SDS011;33326;51.116;6.900;2022-09-30T22:32:55;5.45;;;3.58;;
47603;SDS011;33326;51.116;6.900;2022-09-30T22:38:13;7.18;;;3.70;;
47603;SDS011;33326;51.116;6.900;2022-09-30T22:43:15;4.97;;;3.42;;
47603;SDS011;33326;51.116;6.900;2022-09-30T22:48:17;8.05;;;3.70;;
47603;SDS011;33326;51.116;6.900;2022-09-30T22:53:22;6.43;;;3.70;;
47603;SDS011;33326;51.116;6.900;2022-09-30T22:58:25;6.47;;;3.95;;
47603;SDS011;33326;51.116;6.900;2022-09-30T23:03:27;4.75;;;3.33;;
47603;SDS011;33326;51.116;6.900;2022-09-30T23:08:31;5.68;;;3.70;;
47603;SDS011;33326;51.116;6.900;2022-09-30T23:13:34;5.60;;;3.65;;
47603;SDS011;33326;51.116;6.900;2022-09-30T23:18:37;7.72;;;4.05;;
47603;SDS011;33326;51.116;6.900;2022-09-30T23:23:41;6.13;;;4.13;;
47603;SDS011;33326;51.116;6.900;2022-09-30T23:28:44;7.25;;;4.22;;
47603;SDS011;33326;51.116;6.900;2022-09-30T23:33:48;6.68;;;4.00;;
47603;SDS011;33326;51.116;6.900;2022-09-30T23:38:53;8.43;;;4.20;;
47603;SDS011;33326;51.116;6.900;2022-09-30T23:43:56;8.13;;;4.75;;
47603;SDS011;33326;51.116;6.900;2022-09-30T23:48:58;5.78;;;3.90;;
47603;SDS011;33326;51.116;6.900;2022-09-30T23:54:03;5.85;;;3.83;;
47603;SDS011;33326;51.116;6.900;2022-09-30T23:59:05;5.60;;;3.85;;
